sensor_id;sensor_type;location;lat;lon;timestamp;P1;P2;P0
77481;PMS5003;66582;43.004;-75.010;2023-04-06T00:01:12;8;8;
77481;PMS5003;66582;43.004;-75.010;2023-04-06T00:03:37;9;9;
77481;PMS5003;66582;43.004;-75.010;2023-04-06T00:06:02;8;8;
77481;PMS5003;66582;43.004;-75.010;2023-04-06T00:08:27;10;10;
77481;PMS5003;66582;43.004;-75.010;2023-04-06T00:10:52;10;8;
77481;PMS5003;66582;43.004;-75.010;2023-04-06T00:13:17;11;11;
77481;PMS5003;66582;43.004;-75.010;2023-04-06T00:15:43;9;8;
77481;PMS5003;66582;43.004;-75.010;2023-04-06T00:18:08;12;11;
77481;PMS5003;66582;43.004;-75.010;2023-04-06T00:20:33;11;9;
77481;PMS5003;66582;43.004;-75.010;2023-04-06T00:22:58;11;10;
77481;PMS5003;66582;43.004;-75.010;2023-04-06T00:25:23;12;10;
77481;PMS5003;66582;43.004;-75.010;2023-04-06T00:27:49;11;11;
77481;PMS5003;66582;43.004;-75.010;2023-04-06T00:30:15;8;8;
77481;PMS5003;66582;43.004;-75.010;2023-04-06T00:32:39;10;9;
77481;PMS5003;66582;43.004;-75.010;2023-04-06T00:35:05;12;12;
77481;PMS5003;66582;43.004;-75.010;2023-04-06T00:37:29;10;10;
77481;PMS5003;66582;43.004;-75.010;2023-04-06T00:39:55;10;10;
77481;PMS5003;66582;43.004;-75.010;2023-04-06T00:42:20;11;11;
77481;PMS5003;66582;43.004;-75.010;2023-04-06T00:44:46;13;13;
77481;PMS5003;66582;43.004;-75.010;2023-04-06T00:47:11;11;10;
77481;PMS5003;66582;43.004;-75.010;2023-04-06T00:49:36;11;10;
77481;PMS5003;66582;43.004;-75.010;2023-04-06T00:52:01;8;7;
77481;PMS5003;66582;43.004;-75.010;2023-04-06T00:54:26;10;10;
77481;PMS5003;66582;43.004;-75.010;2023-04-06T00:56:51;10;9;
77481;PMS5003;66582;43.004;-75.010;2023-04-06T00:59:17;8;8;
77481;PMS5003;66582;43.004;-75.010;2023-04-06T01:01:42;9;9;
77481;PMS5003;66582;43.004;-75.010;2023-04-06T01:04:08;10;9;
77481;PMS5003;66582;43.004;-75.010;2023-04-06T01:06:33;14;13;
77481;PMS5003;66582;43.004;-75.010;2023-04-06T01:08:58;10;10;
77481;PMS5003;66582;43.004;-75.010;2023-04-06T01:11:24;10;10;
77481;PMS5003;66582;43.004;-75.010;2023-04-06T01:13:49;9;9;
77481;PMS5003;66582;43.004;-75.010;2023-04-06T01:16:14;12;10;
77481;PMS5003;66582;43.004;-75.010;2023-04-06T01:18:40;10;9;
77481;PMS5003;66582;43.004;-75.010;2023-04-06T01:21:05;11;10;
77481;PMS5003;66582;43.004;-75.010;2023-04-06T01:23:30;12;10;
77481;PMS5003;66582;43.004;-75.010;2023-04-06T01:25:56;12;12;
77481;PMS5003;66582;43.004;-75.010;2023-04-06T01:28:21;10;9;
77481;PMS5003;66582;43.004;-75.010;2023-04-06T01:30:47;11;11;
77481;PMS5003;66582;43.004;-75.010;2023-04-06T01:33:11;10;10;
77481;PMS5003;66582;43.004;-75.010;2023-04-06T01:35:37;10;10;
77481;PMS5003;66582;43.004;-75.010;2023-04-06T01:38:02;11;10;
77481;PMS5003;66582;43.004;-75.010;2023-04-06T01:40:27;10;10;
77481;PMS5003;66582;43.004;-75.010;2023-04-06T01:42:53;11;11;
77481;PMS5003;66582;43.004;-75.010;2023-04-06T01:45:18;7;7;
77481;PMS5003;66582;43.004;-75.010;2023-04-06T01:47:43;9;9;
77481;PMS5003;66582;43.004;-75.010;2023-04-06T01:50:09;9;9;
77481;PMS5003;66582;43.004;-75.010;2023-04-06T01:52:34;9;8;
77481;PMS5003;66582;43.004;-75.010;2023-04-06T01:54:59;10;9;
77481;PMS5003;66582;43.004;-75.010;2023-04-06T01:57:24;9;8;
77481;PMS5003;66582;43.004;-75.010;2023-04-06T01:59:50;10;10;
77481;PMS5003;66582;43.004;-75.010;2023-04-06T02:02:15;9;9;
77481;PMS5003;66582;43.004;-75.010;2023-04-06T02:04:41;9;9;
77481;PMS5003;66582;43.004;-75.010;2023-04-06T02:07:05;11;9;
77481;PMS5003;66582;43.004;-75.010;2023-04-06T02:09:30;8;8;
77481;PMS5003;66582;43.004;-75.010;2023-04-06T02:11:55;11;10;
77481;PMS5003;66582;43.004;-75.010;2023-04-06T02:14:23;8;8;
77481;PMS5003;66582;43.004;-75.010;2023-04-06T02:16:46;10;10;
77481;PMS5003;66582;43.004;-75.010;2023-04-06T02:19:12;11;11;
77481;PMS5003;66582;43.004;-75.010;2023-04-06T02:21:37;12;10;
77481;PMS5003;66582;43.004;-75.010;2023-04-06T02:24:02;11;10;
77481;PMS5003;66582;43.004;-75.010;2023-04-06T02:26:27;11;11;
77481;PMS5003;66582;43.004;-75.010;2023-04-06T02:28:53;10;10;
77481;PMS5003;66582;43.004;-75.010;2023-04-06T02:31:17;9;8;
77481;PMS5003;66582;43.004;-75.010;2023-04-06T02:33:43;9;9;
77481;PMS5003;66582;43.004;-75.010;2023-04-06T02:36:08;11;11;
77481;PMS5003;66582;43.004;-75.010;2023-04-06T02:38:33;11;11;
77481;PMS5003;66582;43.004;-75.010;2023-04-06T02:40:58;10;10;
77481;PMS5003;66582;43.004;-75.010;2023-04-06T02:43:24;7;7;
77481;PMS5003;66582;43.004;-75.010;2023-04-06T02:45:49;9;9;
77481;PMS5003;66582;43.004;-75.010;2023-04-06T02:48:14;11;11;
77481;PMS5003;66582;43.004;-75.010;2023-04-06T02:50:39;7;7;
77481;PMS5003;66582;43.004;-75.010;2023-04-06T02:53:04;10;10;
77481;PMS5003;66582;43.004;-75.010;2023-04-06T02:55:30;11;11;
77481;PMS5003;66582;43.004;-75.010;2023-04-06T02:57:55;10;10;
77481;PMS5003;66582;43.004;-75.010;2023-04-06T03:00:20;10;9;
77481;PMS5003;66582;43.004;-75.010;2023-04-06T03:02:46;10;9;
77481;PMS5003;66582;43.004;-75.010;2023-04-06T03:05:11;12;12;
77481;PMS5003;66582;43.004;-75.010;2023-04-06T03:07:37;10;10;
77481;PMS5003;66582;43.004;-75.010;2023-04-06T03:10:02;11;11;
77481;PMS5003;66582;43.004;-75.010;2023-04-06T03:12:27;9;9;
77481;PMS5003;66582;43.004;-75.010;2023-04-06T03:14:52;10;8;
77481;PMS5003;66582;43.004;-75.010;2023-04-06T03:17:17;7;7;
77481;PMS5003;66582;43.004;-75.010;2023-04-06T03:19:42;8;8;
77481;PMS5003;66582;43.004;-75.010;2023-04-06T03:22:07;12;12;
77481;PMS5003;66582;43.004;-75.010;2023-04-06T03:24:32;8;8;
77481;PMS5003;66582;43.004;-75.010;2023-04-06T03:26:58;8;8;
77481;PMS5003;66582;43.004;-75.010;2023-04-06T03:29:23;10;10;
77481;PMS5003;66582;43.004;-75.010;2023-04-06T03:31:48;10;10;
77481;PMS5003;66582;43.004;-75.010;2023-04-06T03:34:13;9;9;
77481;PMS5003;66582;43.004;-75.010;2023-04-06T03:36:38;12;12;
77481;PMS5003;66582;43.004;-75.010;2023-04-06T03:39:03;14;13;
77481;PMS5003;66582;43.004;-75.010;2023-04-06T03:41:29;13;12;
77481;PMS5003;66582;43.004;-75.010;2023-04-06T03:43:54;13;12;
77481;PMS5003;66582;43.004;-75.010;2023-04-06T03:46:19;10;10;
77481;PMS5003;66582;43.004;-75.010;2023-04-06T03:48:45;13;13;
77481;PMS5003;66582;43.004;-75.010;2023-04-06T03:51:09;13;12;
77481;PMS5003;66582;43.004;-75.010;2023-04-06T03:53:35;11;11;
77481;PMS5003;66582;43.004;-75.010;2023-04-06T03:56:00;18;16;
77481;PMS5003;66582;43.004;-75.010;2023-04-06T03:58:26;13;12;
77481;PMS5003;66582;43.004;-75.010;2023-04-06T04:00:51;12;12;
77481;PMS5003;66582;43.004;-75.010;2023-04-06T04:03:16;14;14;
77481;PMS5003;66582;43.004;-75.010;2023-04-06T04:05:42;13;12;
77481;PMS5003;66582;43.004;-75.010;2023-04-06T04:08:07;12;12;
77481;PMS5003;66582;43.004;-75.010;2023-04-06T04:10:32;15;14;
77481;PMS5003;66582;43.004;-75.010;2023-04-06T04:12:57;12;12;
77481;PMS5003;66582;43.004;-75.010;2023-04-06T04:15:23;10;10;
77481;PMS5003;66582;43.004;-75.010;2023-04-06T04:17:48;15;14;
77481;PMS5003;66582;43.004;-75.010;2023-04-06T04:20:13;10;10;
77481;PMS5003;66582;43.004;-75.010;2023-04-06T04:22:39;12;12;
77481;PMS5003;66582;43.004;-75.010;2023-04-06T04:25:04;12;11;
77481;PMS5003;66582;43.004;-75.010;2023-04-06T04:27:29;11;11;
77481;PMS5003;66582;43.004;-75.010;2023-04-06T04:29:54;10;10;
77481;PMS5003;66582;43.004;-75.010;2023-04-06T04:32:20;12;12;
77481;PMS5003;66582;43.004;-75.010;2023-04-06T04:34:45;12;11;
77481;PMS5003;66582;43.004;-75.010;2023-04-06T04:37:10;10;9;
77481;PMS5003;66582;43.004;-75.010;2023-04-06T04:39:35;12;12;
77481;PMS5003;66582;43.004;-75.010;2023-04-06T04:42:01;10;10;
77481;PMS5003;66582;43.004;-75.010;2023-04-06T04:44:27;14;13;
77481;PMS5003;66582;43.004;-75.010;2023-04-06T04:46:52;12;12;
77481;PMS5003;66582;43.004;-75.010;2023-04-06T04:49:17;11;11;
77481;PMS5003;66582;43.004;-75.010;2023-04-06T04:51:42;9;9;
77481;PMS5003;66582;43.004;-75.010;2023-04-06T04:54:07;10;10;
77481;PMS5003;66582;43.004;-75.010;2023-04-06T04:56:32;12;12;
77481;PMS5003;66582;43.004;-75.010;2023-04-06T04:58:58;8;8;
77481;PMS5003;66582;43.004;-75.010;2023-04-06T05:01:23;9;9;
77481;PMS5003;66582;43.004;-75.010;2023-04-06T05:03:48;12;10;
77481;PMS5003;66582;43.004;-75.010;2023-04-06T05:06:14;10;10;
77481;PMS5003;66582;43.004;-75.010;2023-04-06T05:08:39;10;10;
77481;PMS5003;66582;43.004;-75.010;2023-04-06T05:11:04;11;9;
77481;PMS5003;66582;43.004;-75.010;2023-04-06T05:13:29;9;9;
77481;PMS5003;66582;43.004;-75.010;2023-04-06T05:15:56;9;9;
77481;PMS5003;66582;43.004;-75.010;2023-04-06T05:18:19;7;7;
77481;PMS5003;66582;43.004;-75.010;2023-04-06T05:20:46;12;12;
77481;PMS5003;66582;43.004;-75.010;2023-04-06T05:23:10;11;11;
77481;PMS5003;66582;43.004;-75.010;2023-04-06T05:25:35;9;9;
77481;PMS5003;66582;43.004;-75.010;2023-04-06T05:28:00;8;8;
77481;PMS5003;66582;43.004;-75.010;2023-04-06T05:30:25;7;7;
77481;PMS5003;66582;43.004;-75.010;2023-04-06T05:32:50;8;8;
77481;PMS5003;66582;43.004;-75.010;2023-04-06T05:35:16;11;9;
77481;PMS5003;66582;43.004;-75.010;2023-04-06T05:37:41;10;10;
77481;PMS5003;66582;43.004;-75.010;2023-04-06T05:40:06;8;5;
77481;PMS5003;66582;43.004;-75.010;2023-04-06T05:42:35;9;9;
77481;PMS5003;66582;43.004;-75.010;2023-04-06T05:44:56;9;9;
77481;PMS5003;66582;43.004;-75.010;2023-04-06T05:47:22;7;7;
77481;PMS5003;66582;43.004;-75.010;2023-04-06T05:49:47;7;7;
77481;PMS5003;66582;43.004;-75.010;2023-04-06T05:52:12;7;6;
77481;PMS5003;66582;43.004;-75.010;2023-04-06T05:54:37;6;6;
77481;PMS5003;66582;43.004;-75.010;2023-04-06T05:57:02;7;7;
77481;PMS5003;66582;43.004;-75.010;2023-04-06T05:59:27;7;7;
77481;PMS5003;66582;43.004;-75.010;2023-04-06T06:01:53;6;6;
77481;PMS5003;66582;43.004;-75.010;2023-04-06T06:04:17;7;7;
77481;PMS5003;66582;43.004;-75.010;2023-04-06T06:06:43;6;6;
77481;PMS5003;66582;43.004;-75.010;2023-04-06T06:09:08;5;5;
77481;PMS5003;66582;43.004;-75.010;2023-04-06T06:11:33;6;6;
77481;PMS5003;66582;43.004;-75.010;2023-04-06T06:13:58;5;5;
77481;PMS5003;66582;43.004;-75.010;2023-04-06T06:16:23;5;5;
77481;PMS5003;66582;43.004;-75.010;2023-04-06T06:18:48;8;7;
77481;PMS5003;66582;43.004;-75.010;2023-04-06T06:21:14;4;4;
77481;PMS5003;66582;43.004;-75.010;2023-04-06T06:23:39;3;3;
77481;PMS5003;66582;43.004;-75.010;2023-04-06T06:26:04;5;5;
77481;PMS5003;66582;43.004;-75.010;2023-04-06T06:28:29;5;5;
77481;PMS5003;66582;43.004;-75.010;2023-04-06T06:30:54;6;5;
77481;PMS5003;66582;43.004;-75.010;2023-04-06T06:33:19;4;4;
77481;PMS5003;66582;43.004;-75.010;2023-04-06T06:35:44;7;6;
77481;PMS5003;66582;43.004;-75.010;2023-04-06T06:38:10;3;3;
77481;PMS5003;66582;43.004;-75.010;2023-04-06T06:40:35;4;4;
77481;PMS5003;66582;43.004;-75.010;2023-04-06T06:43:00;4;4;
77481;PMS5003;66582;43.004;-75.010;2023-04-06T06:45:25;6;5;
77481;PMS5003;66582;43.004;-75.010;2023-04-06T06:47:50;4;4;
77481;PMS5003;66582;43.004;-75.010;2023-04-06T06:50:15;5;5;
77481;PMS5003;66582;43.004;-75.010;2023-04-06T06:52:41;5;5;
77481;PMS5003;66582;43.004;-75.010;2023-04-06T06:55:06;3;3;
77481;PMS5003;66582;43.004;-75.010;2023-04-06T06:57:31;4;4;
77481;PMS5003;66582;43.004;-75.010;2023-04-06T06:59:56;4;4;
77481;PMS5003;66582;43.004;-75.010;2023-04-06T07:02:22;2;2;
77481;PMS5003;66582;43.004;-75.010;2023-04-06T07:04:47;4;4;
77481;PMS5003;66582;43.004;-75.010;2023-04-06T07:07:12;4;4;
77481;PMS5003;66582;43.004;-75.010;2023-04-06T07:09:37;5;5;
77481;PMS5003;66582;43.004;-75.010;2023-04-06T07:12:02;4;4;
77481;PMS5003;66582;43.004;-75.010;2023-04-06T07:14:27;4;4;
77481;PMS5003;66582;43.004;-75.010;2023-04-06T07:16:53;7;6;
77481;PMS5003;66582;43.004;-75.010;2023-04-06T07:19:18;5;5;
77481;PMS5003;66582;43.004;-75.010;2023-04-06T07:21:44;6;6;
77481;PMS5003;66582;43.004;-75.010;2023-04-06T07:24:09;5;5;
77481;PMS5003;66582;43.004;-75.010;2023-04-06T07:26:34;5;5;
77481;PMS5003;66582;43.004;-75.010;2023-04-06T07:28:59;5;5;
77481;PMS5003;66582;43.004;-75.010;2023-04-06T07:31:25;5;5;
77481;PMS5003;66582;43.004;-75.010;2023-04-06T07:33:49;5;5;
77481;PMS5003;66582;43.004;-75.010;2023-04-06T07:36:15;4;4;
77481;PMS5003;66582;43.004;-75.010;2023-04-06T07:38:40;4;4;
77481;PMS5003;66582;43.004;-75.010;2023-04-06T07:41:05;4;4;
77481;PMS5003;66582;43.004;-75.010;2023-04-06T07:43:30;5;5;
77481;PMS5003;66582;43.004;-75.010;2023-04-06T07:45:55;5;5;
77481;PMS5003;66582;43.004;-75.010;2023-04-06T07:48:20;7;7;
77481;PMS5003;66582;43.004;-75.010;2023-04-06T07:50:45;6;6;
77481;PMS5003;66582;43.004;-75.010;2023-04-06T07:53:11;9;9;
77481;PMS5003;66582;43.004;-75.010;2023-04-06T07:55:36;8;8;
77481;PMS5003;66582;43.004;-75.010;2023-04-06T07:58:01;8;8;
77481;PMS5003;66582;43.004;-75.010;2023-04-06T08:00:26;8;8;
77481;PMS5003;66582;43.004;-75.010;2023-04-06T08:02:52;8;7;
77481;PMS5003;66582;43.004;-75.010;2023-04-06T08:05:16;9;9;
77481;PMS5003;66582;43.004;-75.010;2023-04-06T08:07:41;9;9;
77481;PMS5003;66582;43.004;-75.010;2023-04-06T08:10:07;9;9;
77481;PMS5003;66582;43.004;-75.010;2023-04-06T08:12:32;11;11;
77481;PMS5003;66582;43.004;-75.010;2023-04-06T08:14:58;11;11;
77481;PMS5003;66582;43.004;-75.010;2023-04-06T08:17:23;13;12;
77481;PMS5003;66582;43.004;-75.010;2023-04-06T08:19:48;10;10;
77481;PMS5003;66582;43.004;-75.010;2023-04-06T08:22:13;11;11;
77481;PMS5003;66582;43.004;-75.010;2023-04-06T08:24:38;11;10;
77481;PMS5003;66582;43.004;-75.010;2023-04-06T08:27:04;11;11;
77481;PMS5003;66582;43.004;-75.010;2023-04-06T08:29:29;10;10;
77481;PMS5003;66582;43.004;-75.010;2023-04-06T08:31:54;11;10;
77481;PMS5003;66582;43.004;-75.010;2023-04-06T08:34:20;12;11;
77481;PMS5003;66582;43.004;-75.010;2023-04-06T08:36:45;11;11;
77481;PMS5003;66582;43.004;-75.010;2023-04-06T08:39:10;10;10;
77481;PMS5003;66582;43.004;-75.010;2023-04-06T08:41:35;13;11;
77481;PMS5003;66582;43.004;-75.010;2023-04-06T08:44:01;12;12;
77481;PMS5003;66582;43.004;-75.010;2023-04-06T08:46:26;14;12;
77481;PMS5003;66582;43.004;-75.010;2023-04-06T08:48:51;12;12;
77481;PMS5003;66582;43.004;-75.010;2023-04-06T08:51:16;14;13;
77481;PMS5003;66582;43.004;-75.010;2023-04-06T08:53:42;11;10;
77481;PMS5003;66582;43.004;-75.010;2023-04-06T08:56:07;10;10;
77481;PMS5003;66582;43.004;-75.010;2023-04-06T08:58:33;13;12;
77481;PMS5003;66582;43.004;-75.010;2023-04-06T09:00:57;9;9;
77481;PMS5003;66582;43.004;-75.010;2023-04-06T09:03:22;12;12;
77481;PMS5003;66582;43.004;-75.010;2023-04-06T09:05:48;13;12;
77481;PMS5003;66582;43.004;-75.010;2023-04-06T09:08:13;12;12;
77481;PMS5003;66582;43.004;-75.010;2023-04-06T09:10:39;11;11;
77481;PMS5003;66582;43.004;-75.010;2023-04-06T09:13:04;11;11;
77481;PMS5003;66582;43.004;-75.010;2023-04-06T09:15:29;13;13;
77481;PMS5003;66582;43.004;-75.010;2023-04-06T09:17:53;12;12;
77481;PMS5003;66582;43.004;-75.010;2023-04-06T09:20:22;11;11;
77481;PMS5003;66582;43.004;-75.010;2023-04-06T09:22:44;13;13;
77481;PMS5003;66582;43.004;-75.010;2023-04-06T09:25:09;12;12;
77481;PMS5003;66582;43.004;-75.010;2023-04-06T09:27:35;13;12;
77481;PMS5003;66582;43.004;-75.010;2023-04-06T09:30:03;13;12;
77481;PMS5003;66582;43.004;-75.010;2023-04-06T09:32:24;10;9;
77481;PMS5003;66582;43.004;-75.010;2023-04-06T09:34:50;13;13;
77481;PMS5003;66582;43.004;-75.010;2023-04-06T09:37:15;12;11;
77481;PMS5003;66582;43.004;-75.010;2023-04-06T09:39:40;10;10;
77481;PMS5003;66582;43.004;-75.010;2023-04-06T09:42:06;12;11;
77481;PMS5003;66582;43.004;-75.010;2023-04-06T09:44:36;13;13;
77481;PMS5003;66582;43.004;-75.010;2023-04-06T09:46:56;12;11;
77481;PMS5003;66582;43.004;-75.010;2023-04-06T09:49:21;11;11;
77481;PMS5003;66582;43.004;-75.010;2023-04-06T09:51:47;13;13;
77481;PMS5003;66582;43.004;-75.010;2023-04-06T09:54:12;12;11;
77481;PMS5003;66582;43.004;-75.010;2023-04-06T09:56:39;11;11;
77481;PMS5003;66582;43.004;-75.010;2023-04-06T09:59:05;14;14;
77481;PMS5003;66582;43.004;-75.010;2023-04-06T10:01:28;13;13;
77481;PMS5003;66582;43.004;-75.010;2023-04-06T10:03:56;10;10;
77481;PMS5003;66582;43.004;-75.010;2023-04-06T10:06:20;12;12;
77481;PMS5003;66582;43.004;-75.010;2023-04-06T10:08:45;12;12;
77481;PMS5003;66582;43.004;-75.010;2023-04-06T10:11:09;12;12;
77481;PMS5003;66582;43.004;-75.010;2023-04-06T10:13:34;14;13;
77481;PMS5003;66582;43.004;-75.010;2023-04-06T10:15:59;12;12;
77481;PMS5003;66582;43.004;-75.010;2023-04-06T10:18:25;18;16;
77481;PMS5003;66582;43.004;-75.010;2023-04-06T10:20:51;12;12;
77481;PMS5003;66582;43.004;-75.010;2023-04-06T10:23:19;16;15;
77481;PMS5003;66582;43.004;-75.010;2023-04-06T10:25:40;14;14;
77481;PMS5003;66582;43.004;-75.010;2023-04-06T10:28:07;12;12;
77481;PMS5003;66582;43.004;-75.010;2023-04-06T10:30:32;12;12;
77481;PMS5003;66582;43.004;-75.010;2023-04-06T10:32:56;16;16;
77481;PMS5003;66582;43.004;-75.010;2023-04-06T10:35:22;15;14;
77481;PMS5003;66582;43.004;-75.010;2023-04-06T10:37:50;14;14;
77481;PMS5003;66582;43.004;-75.010;2023-04-06T10:40:18;15;15;
77481;PMS5003;66582;43.004;-75.010;2023-04-06T10:42:38;14;14;
77481;PMS5003;66582;43.004;-75.010;2023-04-06T10:45:05;16;15;
77481;PMS5003;66582;43.004;-75.010;2023-04-06T10:47:31;15;14;
77481;PMS5003;66582;43.004;-75.010;2023-04-06T10:49:55;15;14;
77481;PMS5003;66582;43.004;-75.010;2023-04-06T10:52:20;18;15;
77481;PMS5003;66582;43.004;-75.010;2023-04-06T10:54:45;17;16;
77481;PMS5003;66582;43.004;-75.010;2023-04-06T10:57:12;14;14;
77481;PMS5003;66582;43.004;-75.010;2023-04-06T10:59:36;16;16;
77481;PMS5003;66582;43.004;-75.010;2023-04-06T11:02:02;17;16;
77481;PMS5003;66582;43.004;-75.010;2023-04-06T11:04:27;15;15;
77481;PMS5003;66582;43.004;-75.010;2023-04-06T11:06:53;14;13;
77481;PMS5003;66582;43.004;-75.010;2023-04-06T11:09:24;17;15;
77481;PMS5003;66582;43.004;-75.010;2023-04-06T11:11:43;19;19;
77481;PMS5003;66582;43.004;-75.010;2023-04-06T11:14:09;16;16;
77481;PMS5003;66582;43.004;-75.010;2023-04-06T11:16:34;20;18;
77481;PMS5003;66582;43.004;-75.010;2023-04-06T11:19:00;15;14;
77481;PMS5003;66582;43.004;-75.010;2023-04-06T11:21:32;17;16;
77481;PMS5003;66582;43.004;-75.010;2023-04-06T11:23:50;18;16;
77481;PMS5003;66582;43.004;-75.010;2023-04-06T11:26:16;17;17;
77481;PMS5003;66582;43.004;-75.010;2023-04-06T11:28:41;21;21;
77481;PMS5003;66582;43.004;-75.010;2023-04-06T11:31:07;21;19;
77481;PMS5003;66582;43.004;-75.010;2023-04-06T11:33:35;19;18;
77481;PMS5003;66582;43.004;-75.010;2023-04-06T11:35:58;15;14;
77481;PMS5003;66582;43.004;-75.010;2023-04-06T11:38:23;15;15;
77481;PMS5003;66582;43.004;-75.010;2023-04-06T11:40:52;16;15;
77481;PMS5003;66582;43.004;-75.010;2023-04-06T11:43:14;16;16;
77481;PMS5003;66582;43.004;-75.010;2023-04-06T11:45:41;17;16;
77481;PMS5003;66582;43.004;-75.010;2023-04-06T11:48:05;17;16;
77481;PMS5003;66582;43.004;-75.010;2023-04-06T11:50:32;20;17;
77481;PMS5003;66582;43.004;-75.010;2023-04-06T11:52:59;18;18;
77481;PMS5003;66582;43.004;-75.010;2023-04-06T11:55:21;15;15;
77481;PMS5003;66582;43.004;-75.010;2023-04-06T11:57:47;19;19;
77481;PMS5003;66582;43.004;-75.010;2023-04-06T12:00:13;20;19;
77481;PMS5003;66582;43.004;-75.010;2023-04-06T12:02:39;16;15;
77481;PMS5003;66582;43.004;-75.010;2023-04-06T12:05:04;18;18;
77481;PMS5003;66582;43.004;-75.010;2023-04-06T12:07:30;17;16;
77481;PMS5003;66582;43.004;-75.010;2023-04-06T12:09:55;16;15;
77481;PMS5003;66582;43.004;-75.010;2023-04-06T12:12:20;17;16;
77481;PMS5003;66582;43.004;-75.010;2023-04-06T12:14:46;18;16;
77481;PMS5003;66582;43.004;-75.010;2023-04-06T12:17:11;16;15;
77481;PMS5003;66582;43.004;-75.010;2023-04-06T12:19:36;15;15;
77481;PMS5003;66582;43.004;-75.010;2023-04-06T12:22:02;20;19;
77481;PMS5003;66582;43.004;-75.010;2023-04-06T12:24:27;15;14;
77481;PMS5003;66582;43.004;-75.010;2023-04-06T12:26:53;18;17;
77481;PMS5003;66582;43.004;-75.010;2023-04-06T12:29:19;20;19;
77481;PMS5003;66582;43.004;-75.010;2023-04-06T12:31:44;15;15;
77481;PMS5003;66582;43.004;-75.010;2023-04-06T12:34:09;14;14;
77481;PMS5003;66582;43.004;-75.010;2023-04-06T12:36:36;17;16;
77481;PMS5003;66582;43.004;-75.010;2023-04-06T12:39:01;11;11;
77481;PMS5003;66582;43.004;-75.010;2023-04-06T12:41:26;14;14;
77481;PMS5003;66582;43.004;-75.010;2023-04-06T12:43:51;14;14;
77481;PMS5003;66582;43.004;-75.010;2023-04-06T12:46:17;12;12;
77481;PMS5003;66582;43.004;-75.010;2023-04-06T12:48:43;13;12;
77481;PMS5003;66582;43.004;-75.010;2023-04-06T12:51:08;12;12;
77481;PMS5003;66582;43.004;-75.010;2023-04-06T12:53:34;14;14;
77481;PMS5003;66582;43.004;-75.010;2023-04-06T12:55:59;11;11;
77481;PMS5003;66582;43.004;-75.010;2023-04-06T12:58:24;11;9;
77481;PMS5003;66582;43.004;-75.010;2023-04-06T13:00:50;10;10;
77481;PMS5003;66582;43.004;-75.010;2023-04-06T13:03:15;12;12;
77481;PMS5003;66582;43.004;-75.010;2023-04-06T13:05:43;9;9;
77481;PMS5003;66582;43.004;-75.010;2023-04-06T13:08:06;11;11;
77481;PMS5003;66582;43.004;-75.010;2023-04-06T13:10:32;11;11;
77481;PMS5003;66582;43.004;-75.010;2023-04-06T13:12:57;12;12;
77481;PMS5003;66582;43.004;-75.010;2023-04-06T13:15:23;14;12;
77481;PMS5003;66582;43.004;-75.010;2023-04-06T13:17:48;13;13;
77481;PMS5003;66582;43.004;-75.010;2023-04-06T13:20:14;13;11;
77481;PMS5003;66582;43.004;-75.010;2023-04-06T13:22:39;13;13;
77481;PMS5003;66582;43.004;-75.010;2023-04-06T13:25:04;14;13;
77481;PMS5003;66582;43.004;-75.010;2023-04-06T13:27:29;12;12;
77481;PMS5003;66582;43.004;-75.010;2023-04-06T13:29:55;15;13;
77481;PMS5003;66582;43.004;-75.010;2023-04-06T13:32:20;15;15;
77481;PMS5003;66582;43.004;-75.010;2023-04-06T13:34:46;12;11;
77481;PMS5003;66582;43.004;-75.010;2023-04-06T13:37:11;11;11;
77481;PMS5003;66582;43.004;-75.010;2023-04-06T13:39:37;16;16;
77481;PMS5003;66582;43.004;-75.010;2023-04-06T13:42:01;15;14;
77481;PMS5003;66582;43.004;-75.010;2023-04-06T13:44:28;13;13;
77481;PMS5003;66582;43.004;-75.010;2023-04-06T13:46:52;11;11;
77481;PMS5003;66582;43.004;-75.010;2023-04-06T13:49:18;13;11;
77481;PMS5003;66582;43.004;-75.010;2023-04-06T13:51:43;10;10;
77481;PMS5003;66582;43.004;-75.010;2023-04-06T13:54:08;12;10;
77481;PMS5003;66582;43.004;-75.010;2023-04-06T13:56:34;11;10;
77481;PMS5003;66582;43.004;-75.010;2023-04-06T13:58:59;9;8;
77481;PMS5003;66582;43.004;-75.010;2023-04-06T14:01:24;11;10;
77481;PMS5003;66582;43.004;-75.010;2023-04-06T14:03:49;10;9;
77481;PMS5003;66582;43.004;-75.010;2023-04-06T14:06:14;9;9;
77481;PMS5003;66582;43.004;-75.010;2023-04-06T14:08:40;8;8;
77481;PMS5003;66582;43.004;-75.010;2023-04-06T14:11:06;7;6;
77481;PMS5003;66582;43.004;-75.010;2023-04-06T14:13:30;6;6;
77481;PMS5003;66582;43.004;-75.010;2023-04-06T14:15:56;6;6;
77481;PMS5003;66582;43.004;-75.010;2023-04-06T14:18:21;5;5;
77481;PMS5003;66582;43.004;-75.010;2023-04-06T14:23:12;9;9;
77481;PMS5003;66582;43.004;-75.010;2023-04-06T14:25:37;12;10;
77481;PMS5003;66582;43.004;-75.010;2023-04-06T14:28:03;10;10;
77481;PMS5003;66582;43.004;-75.010;2023-04-06T14:30:29;11;10;
77481;PMS5003;66582;43.004;-75.010;2023-04-06T14:32:53;12;12;
77481;PMS5003;66582;43.004;-75.010;2023-04-06T14:35:19;11;11;
77481;PMS5003;66582;43.004;-75.010;2023-04-06T14:37:44;15;13;
77481;PMS5003;66582;43.004;-75.010;2023-04-06T14:40:09;11;10;
77481;PMS5003;66582;43.004;-75.010;2023-04-06T14:42:35;13;13;
77481;PMS5003;66582;43.004;-75.010;2023-04-06T14:45:00;9;9;
77481;PMS5003;66582;43.004;-75.010;2023-04-06T14:47:24;12;10;
77481;PMS5003;66582;43.004;-75.010;2023-04-06T14:49:50;13;12;
77481;PMS5003;66582;43.004;-75.010;2023-04-06T14:52:16;11;11;
77481;PMS5003;66582;43.004;-75.010;2023-04-06T14:54:40;13;11;
77481;PMS5003;66582;43.004;-75.010;2023-04-06T14:57:05;9;9;
77481;PMS5003;66582;43.004;-75.010;2023-04-06T14:59:31;11;11;
77481;PMS5003;66582;43.004;-75.010;2023-04-06T15:01:56;15;14;
77481;PMS5003;66582;43.004;-75.010;2023-04-06T15:04:21;12;12;
77481;PMS5003;66582;43.004;-75.010;2023-04-06T15:06:46;12;12;
77481;PMS5003;66582;43.004;-75.010;2023-04-06T15:09:12;13;13;
77481;PMS5003;66582;43.004;-75.010;2023-04-06T15:11:37;10;10;
77481;PMS5003;66582;43.004;-75.010;2023-04-06T15:14:02;13;13;
77481;PMS5003;66582;43.004;-75.010;2023-04-06T15:16:28;10;10;
77481;PMS5003;66582;43.004;-75.010;2023-04-06T15:18:54;14;13;
77481;PMS5003;66582;43.004;-75.010;2023-04-06T15:21:19;9;9;
77481;PMS5003;66582;43.004;-75.010;2023-04-06T15:23:44;8;8;
77481;PMS5003;66582;43.004;-75.010;2023-04-06T15:26:10;12;11;
77481;PMS5003;66582;43.004;-75.010;2023-04-06T15:28:35;9;9;
77481;PMS5003;66582;43.004;-75.010;2023-04-06T15:31:01;9;9;
77481;PMS5003;66582;43.004;-75.010;2023-04-06T15:33:25;7;7;
77481;PMS5003;66582;43.004;-75.010;2023-04-06T15:35:50;6;6;
77481;PMS5003;66582;43.004;-75.010;2023-04-06T15:38:15;8;8;
77481;PMS5003;66582;43.004;-75.010;2023-04-06T15:40:43;6;6;
77481;PMS5003;66582;43.004;-75.010;2023-04-06T15:43:06;4;4;
77481;PMS5003;66582;43.004;-75.010;2023-04-06T15:45:31;5;5;